createdAt,value
2023-04-24T00:02:28.505Z,95138.59
2023-04-24T00:05:18.340Z,95139.03
2023-04-24T00:08:03.773Z,95139.63
2023-04-24T00:10:49.287Z,95127.69
2023-04-24T00:13:34.384Z,95128.09
2023-04-24T00:16:20.053Z,95129.72
2023-04-24T00:19:06.957Z,95124.47
2023-04-24T00:21:52.484Z,95126.50
2023-04-24T00:24:37.759Z,95126.09
2023-04-24T00:27:23.133Z,95115.75
2023-04-24T00:30:09.069Z,95127.69
2023-04-24T00:32:54.460Z,95124.66
2023-04-24T00:35:39.774Z,95117.38
2023-04-24T00:38:25.077Z,95122.66
2023-04-24T00:41:10.449Z,95123.25
2023-04-24T00:43:55.804Z,95105.25
2023-04-24T00:46:41.609Z,95114.34
2023-04-24T00:49:27.120Z,95113.94
2023-04-24T00:52:13.520Z,95105.44
2023-04-24T00:54:58.776Z,95107.84
2023-04-24T00:57:45.047Z,95105.00
2023-04-24T01:00:31.090Z,95105.22
2023-04-24T01:03:16.689Z,95098.31
2023-04-24T01:06:02.469Z,95091.66
2023-04-24T01:08:48.971Z,95092.06
2023-04-24T01:11:34.393Z,95098.72
2023-04-24T01:14:19.574Z,95096.72
2023-04-24T01:17:05.086Z,95100.13
2023-04-24T01:19:50.565Z,95095.47
2023-04-24T01:22:35.934Z,95100.94
2023-04-24T01:25:21.560Z,95087.78
2023-04-24T01:28:06.666Z,95093.66
2023-04-24T01:30:52.092Z,95090.84
2023-04-24T01:33:37.285Z,95087.78
2023-04-24T01:36:23.784Z,95088.41
2023-04-24T01:39:10.865Z,95088.97
2023-04-24T01:41:57.275Z,95074.63
2023-04-24T01:44:43.065Z,95079.28
2023-04-24T01:47:29.322Z,95073.81
2023-04-24T01:50:14.452Z,95076.22
2023-04-24T01:52:59.786Z,95071.97
2023-04-24T01:55:44.974Z,95071.75
2023-04-24T01:58:30.403Z,95067.72
2023-04-24T02:01:22.190Z,95062.25
2023-04-24T02:04:09.070Z,95065.31
2023-04-24T02:06:54.514Z,95063.03
2023-04-24T02:09:39.813Z,95061.22
2023-04-24T02:12:25.276Z,95059.63
2023-04-24T02:15:11.201Z,95057.38
2023-04-24T02:17:56.651Z,95055.34
2023-04-24T02:20:41.982Z,95053.91
2023-04-24T02:23:28.716Z,95049.06
2023-04-24T02:26:14.124Z,95047.44
2023-04-24T02:28:59.345Z,95042.59
2023-04-24T02:31:44.748Z,95048.22
2023-04-24T02:34:30.068Z,95034.88
2023-04-24T02:37:15.406Z,95051.03
2023-04-24T02:40:00.643Z,95043.56
2023-04-24T02:42:46.139Z,95048.19
2023-04-24T02:45:31.484Z,95039.69
2023-04-24T02:48:16.714Z,95041.13
2023-04-24T02:51:02.021Z,95032.81
2023-04-24T02:53:47.200Z,95041.69
2023-04-24T02:56:32.557Z,95039.03
2023-04-24T02:59:17.910Z,95030.94
2023-04-24T03:02:03.205Z,95034.78
2023-04-24T03:04:51.428Z,95037.56
2023-04-24T03:07:36.584Z,95037.34
2023-04-24T03:10:23.812Z,95043.63
2023-04-24T03:13:09.381Z,95038.75
2023-04-24T03:15:55.212Z,95038.13
2023-04-24T03:18:40.465Z,95034.69
2023-04-24T03:21:25.951Z,95039.16
2023-04-24T03:24:11.244Z,95037.53
2023-04-24T03:26:57.916Z,95040.34
2023-04-24T03:29:43.615Z,95035.09
2023-04-24T03:32:29.334Z,95042.78
2023-04-24T03:35:14.991Z,95038.94
2023-04-24T03:38:00.266Z,95031.22
2023-04-24T03:40:45.752Z,95029.63
2023-04-24T03:43:30.870Z,95038.69
2023-04-24T03:46:16.456Z,95034.06
2023-04-24T03:49:01.795Z,95035.88
2023-04-24T03:51:47.082Z,95039.50
2023-04-24T03:54:32.535Z,95039.88
2023-04-24T03:57:17.809Z,95038.50
2023-04-24T04:00:05.227Z,95035.69
2023-04-24T04:02:50.641Z,95037.28
2023-04-24T04:05:35.872Z,95036.69
2023-04-24T04:08:21.311Z,95040.94
2023-04-24T04:11:06.585Z,95028.59
2023-04-24T04:13:52.105Z,95042.16
2023-04-24T04:16:37.784Z,95038.13
2023-04-24T04:19:22.880Z,95031.69
2023-04-24T04:22:09.130Z,95027.88
2023-04-24T04:24:54.045Z,95028.09
2023-04-24T04:27:39.920Z,95023.47
2023-04-24T04:30:25.193Z,95030.31
2023-04-24T04:33:11.816Z,95026.31
2023-04-24T04:35:57.864Z,95028.94
2023-04-24T04:38:44.125Z,95020.88
2023-04-24T04:41:29.199Z,95015.84
2023-04-24T04:44:15.110Z,95011.00
2023-04-24T04:47:01.411Z,95012.66
2023-04-24T04:49:46.926Z,95010.25
2023-04-24T04:52:32.454Z,95017.31
2023-04-24T04:55:17.745Z,95006.63
2023-04-24T04:58:03.838Z,95006.06
2023-04-24T05:00:49.618Z,95003.44
2023-04-24T05:03:35.052Z,95002.03
2023-04-24T05:06:21.604Z,94999.19
2023-04-24T05:09:08.572Z,95000.63
2023-04-24T05:11:54.459Z,95000.44
2023-04-24T05:14:39.662Z,94998.63
2023-04-24T05:17:25.085Z,94995.16
2023-04-24T05:20:10.862Z,94990.50
2023-04-24T05:22:56.445Z,94988.47
2023-04-24T05:25:42.449Z,94989.91
2023-04-24T05:28:29.574Z,94988.69
2023-04-24T05:31:14.997Z,94997.78
2023-04-24T05:34:00.455Z,94986.84
2023-04-24T05:36:45.677Z,94987.22
2023-04-24T05:39:30.905Z,94984.97
2023-04-24T05:42:16.350Z,94989.56
2023-04-24T05:45:01.745Z,94988.94
2023-04-24T05:47:46.822Z,94976.91
2023-04-24T05:50:32.511Z,94980.50
2023-04-24T05:53:18.907Z,94976.41
2023-04-24T05:56:04.180Z,94970.50
2023-04-24T05:58:49.362Z,94967.94
2023-04-24T06:01:34.823Z,94967.59
2023-04-24T06:04:20.638Z,94966.81
2023-04-24T06:07:06.339Z,94956.69
2023-04-24T06:09:51.575Z,94960.88
2023-04-24T06:12:37.609Z,94948.84
2023-04-24T06:15:22.980Z,94954.41
2023-04-24T06:18:08.764Z,94947.44
2023-04-24T06:20:54.191Z,94950.59
2023-04-24T06:23:39.414Z,94954.91
2023-04-24T06:26:26.177Z,94947.41
2023-04-24T06:29:11.710Z,94946.16
2023-04-24T06:31:56.996Z,94951.91
2023-04-24T06:34:43.324Z,94945.66
2023-04-24T06:37:28.759Z,94945.81
2023-04-24T06:40:14.298Z,94950.91
2023-04-24T06:43:01.099Z,94942.53
2023-04-24T06:45:46.375Z,94937.31
2023-04-24T06:48:31.847Z,94936.34
2023-04-24T06:51:18.643Z,94941.22
2023-04-24T06:54:04.046Z,94935.91
2023-04-24T06:56:50.810Z,94931.59
2023-04-24T06:59:35.684Z,94932.41
2023-04-24T07:02:21.386Z,94922.41
2023-04-24T07:05:07.902Z,94918.88
2023-04-24T07:07:53.694Z,94925.31
2023-04-24T07:10:38.752Z,94921.16
2023-04-24T07:13:24.665Z,94906.91
2023-04-24T07:16:10.708Z,94911.88
2023-04-24T07:18:55.834Z,94910.34
2023-04-24T07:21:41.401Z,94916.09
2023-04-24T07:24:27.023Z,94909.09
2023-04-24T07:27:12.955Z,94911.91
2023-04-24T07:29:58.353Z,94913.59
2023-04-24T07:32:43.741Z,94912.13
2023-04-24T07:35:28.907Z,94912.72
2023-04-24T07:38:14.150Z,94900.09
2023-04-24T07:40:59.573Z,94905.53
2023-04-24T07:43:45.426Z,94905.13
2023-04-24T07:46:31.617Z,94902.84
2023-04-24T07:49:18.484Z,94904.25
2023-04-24T07:52:05.182Z,94901.75
2023-04-24T07:54:51.225Z,94900.19
2023-04-24T07:57:37.317Z,94898.13
2023-04-24T08:00:22.563Z,94892.84
2023-04-24T08:03:08.086Z,94888.38
2023-04-24T08:05:53.800Z,94890.81
2023-04-24T08:08:39.384Z,94877.81
2023-04-24T08:11:25.293Z,94883.81
2023-04-24T08:14:10.733Z,94876.91
2023-04-24T08:17:01.388Z,94864.44
2023-04-24T08:19:49.280Z,94872.47
2023-04-24T08:22:34.766Z,94861.81
2023-04-24T08:25:20.267Z,94858.63
2023-04-24T08:28:07.486Z,94853.59
2023-04-24T08:30:55.984Z,94857.38
2023-04-24T08:33:42.038Z,94840.81
2023-04-24T08:36:36.041Z,94848.00
2023-04-24T08:39:25.071Z,94856.56
2023-04-24T08:42:12.252Z,94849.94
2023-04-24T08:44:58.960Z,94842.19
2023-04-24T08:47:45.221Z,94840.06
2023-04-24T08:50:30.923Z,94830.41
2023-04-24T08:53:16.859Z,94835.47
2023-04-24T08:56:03.280Z,94833.28
2023-04-24T08:58:49.191Z,94832.47
2023-04-24T09:01:36.134Z,94838.84
2023-04-24T09:04:23.274Z,94828.41
2023-04-24T09:07:10.610Z,94828.63
2023-04-24T09:09:56.082Z,94820.34
2023-04-24T09:12:42.425Z,94826.75
2023-04-24T09:15:27.735Z,94821.66
2023-04-24T09:18:12.984Z,94812.78
2023-04-24T09:21:04.061Z,94818.88
2023-04-24T09:23:58.843Z,94815.41
2023-04-24T09:26:44.299Z,94803.56
2023-04-24T09:29:29.991Z,94802.72
2023-04-24T09:32:23.580Z,94798.41
2023-04-24T09:35:14.462Z,94799.47
2023-04-24T09:37:59.502Z,94804.25
2023-04-24T09:40:44.856Z,94805.31
2023-04-24T09:43:30.917Z,94805.84
2023-04-24T09:46:19.427Z,94803.69
2023-04-24T09:49:13.496Z,94808.00
2023-04-24T09:52:10.880Z,94806.97
2023-04-24T09:54:56.242Z,94813.34
2023-04-24T09:57:55.859Z,94798.25
2023-04-24T10:00:41.347Z,94798.81
2023-04-24T10:03:28.114Z,94789.50
2023-04-24T10:06:14.014Z,94793.53
2023-04-24T10:08:59.975Z,94797.56
2023-04-24T10:11:47.000Z,94796.28
2023-04-24T10:14:32.486Z,94795.22
2023-04-24T10:17:18.384Z,94797.34
2023-04-24T10:20:03.679Z,94796.03
2023-04-24T10:22:51.296Z,94800.88
2023-04-24T10:25:40.477Z,94785.63
2023-04-24T10:28:26.015Z,94790.41
2023-04-24T10:31:12.723Z,94786.34
2023-04-24T10:33:59.570Z,94782.56
2023-04-24T10:36:49.209Z,94780.19
2023-04-24T10:39:34.646Z,94785.50
2023-04-24T10:42:20.691Z,94785.78
2023-04-24T10:45:07.002Z,94786.56
2023-04-24T10:48:00.364Z,94791.75
2023-04-24T10:50:53.680Z,94777.34
2023-04-24T10:53:39.160Z,94781.91
2023-04-24T10:56:24.508Z,94793.19
2023-04-24T10:59:10.834Z,94787.56
2023-04-24T11:01:56.572Z,94786.81
2023-04-24T11:04:43.931Z,94790.63
2023-04-24T11:07:29.358Z,94786.84
2023-04-24T11:10:27.450Z,94795.72
2023-04-24T11:13:15.859Z,94785.78
2023-04-24T11:16:39.739Z,94796.00
2023-04-24T11:19:27.199Z,94791.13
2023-04-24T11:22:18.054Z,94792.50
2023-04-24T11:25:05.325Z,94793.03
2023-04-24T11:27:51.529Z,94789.03
2023-04-24T11:30:41.092Z,94794.66
2023-04-24T11:33:26.591Z,94796.78
2023-04-24T11:36:12.079Z,94796.53
2023-04-24T11:38:58.437Z,94796.28
2023-04-24T11:41:43.860Z,94791.75
2023-04-24T11:44:29.501Z,94790.19
2023-04-24T11:47:14.802Z,94791.50
2023-04-24T11:50:01.940Z,94791.22
2023-04-24T11:52:49.860Z,94790.69
2023-04-24T11:55:34.999Z,94790.16
2023-04-24T11:58:22.787Z,94783.44
2023-04-24T12:01:08.097Z,94793.88
2023-04-24T12:04:01.065Z,94786.69
2023-04-24T12:07:03.487Z,94781.88
2023-04-24T12:09:52.622Z,94781.63
2023-04-24T12:12:38.296Z,94785.38
2023-04-24T12:15:24.432Z,94785.66
2023-04-24T12:18:14.005Z,94793.94
2023-04-24T12:21:19.151Z,94787.81
2023-04-24T12:24:07.672Z,94795.59
2023-04-24T12:26:54.546Z,94799.31
2023-04-24T12:29:58.750Z,94792.94
2023-04-24T12:32:49.083Z,94797.25
2023-04-24T12:35:35.158Z,94790.28
2023-04-24T12:38:25.435Z,94790.03
2023-04-24T12:41:12.454Z,94789.00
2023-04-24T12:43:57.576Z,94789.28
2023-04-24T12:46:42.810Z,94784.19
2023-04-24T12:49:29.180Z,94787.91
2023-04-24T12:52:14.447Z,94787.09
2023-04-24T12:55:01.617Z,94780.69
2023-04-24T12:57:46.667Z,94777.50
2023-04-24T13:00:32.166Z,94782.59
2023-04-24T13:03:17.506Z,94779.63
2023-04-24T13:06:02.894Z,94781.25
2023-04-24T13:08:49.516Z,94776.44
2023-04-24T13:11:34.419Z,94770.59
2023-04-24T13:14:19.734Z,94766.84
2023-04-24T13:17:05.986Z,94773.53
2023-04-24T13:19:52.670Z,94776.47
2023-04-24T13:22:38.477Z,94778.34
2023-04-24T13:25:26.025Z,94779.13
2023-04-24T13:28:11.232Z,94776.72
2023-04-24T13:30:56.583Z,94764.72
2023-04-24T13:33:42.416Z,94758.31
2023-04-24T13:36:27.899Z,94766.06
2023-04-24T13:39:13.670Z,94760.97
2023-04-24T13:41:59.331Z,94768.97
2023-04-24T13:44:44.511Z,94770.56
2023-04-24T13:47:29.985Z,94760.97
2023-04-24T13:50:16.090Z,94768.44
2023-04-24T13:53:02.961Z,94762.56
2023-04-24T13:55:48.748Z,94774.06
2023-04-24T13:58:33.747Z,94771.94
2023-04-24T14:01:19.310Z,94778.31
2023-04-24T14:04:05.014Z,94777.22
2023-04-24T14:06:50.467Z,94780.44
2023-04-24T14:09:35.841Z,94789.25
2023-04-24T14:12:22.083Z,94782.84
2023-04-24T14:15:07.854Z,94783.38
2023-04-24T14:17:52.892Z,94776.94
2023-04-24T14:20:38.188Z,94778.00
2023-04-24T14:23:23.622Z,94774.81
2023-04-24T14:26:08.923Z,94772.66
2023-04-24T14:29:01.049Z,94774.78
2023-04-24T14:31:56.845Z,94776.13
2023-04-24T14:34:42.670Z,94791.78
2023-04-24T14:37:28.029Z,94784.75
2023-04-24T14:40:29.770Z,94790.28
2023-04-24T14:43:18.535Z,94779.84
2023-04-24T14:46:05.781Z,94787.84
2023-04-24T14:48:50.887Z,94781.69
2023-04-24T14:51:39.319Z,94787.84
2023-04-24T14:54:24.755Z,94781.16
2023-04-24T14:57:10.029Z,94790.53
2023-04-24T14:59:55.208Z,94780.09
2023-04-24T15:02:43.293Z,94787.59
2023-04-24T15:05:28.866Z,94785.22
2023-04-24T15:08:15.006Z,94785.75
2023-04-24T15:11:00.125Z,94781.50
2023-04-24T15:13:48.229Z,94789.50
2023-04-24T15:16:33.763Z,94783.63
2023-04-24T15:19:18.686Z,94781.91
2023-04-24T15:22:04.026Z,94782.94
2023-04-24T15:24:49.543Z,94783.75
2023-04-24T15:27:46.878Z,94777.84
2023-04-24T15:30:32.392Z,94781.28
2023-04-24T15:33:17.568Z,94775.91
2023-04-24T15:36:02.692Z,94773.69
2023-04-24T15:38:48.791Z,94770.41
2023-04-24T15:41:33.887Z,94763.75
2023-04-24T15:44:19.493Z,94771.16
2023-04-24T15:47:04.998Z,94770.25
2023-04-24T15:49:50.335Z,94763.94
2023-04-24T15:52:36.056Z,94762.38
2023-04-24T15:55:21.526Z,94758.41
2023-04-24T15:58:06.538Z,94757.84
2023-04-24T16:00:51.765Z,94761.84
2023-04-24T16:03:37.136Z,94757.47
2023-04-24T16:06:22.677Z,94742.63
2023-04-24T16:09:08.765Z,94741.59
2023-04-24T16:11:54.003Z,94736.81
2023-04-24T16:14:39.709Z,94743.16
2023-04-24T16:17:25.006Z,94741.03
2023-04-24T16:20:10.903Z,94734.59
2023-04-24T16:22:56.138Z,94725.47
2023-04-24T16:25:41.192Z,94737.25
2023-04-24T16:28:27.789Z,94731.69
2023-04-24T16:31:12.867Z,94728.75
2023-04-24T16:33:57.873Z,94727.13
2023-04-24T16:36:43.389Z,94725.28
2023-04-24T16:39:28.531Z,94728.22
2023-04-24T16:42:14.816Z,94716.75
2023-04-24T16:44:59.823Z,94724.22
2023-04-24T16:47:45.171Z,94721.75
2023-04-24T16:50:30.027Z,94716.94
2023-04-24T16:53:15.489Z,94724.38
2023-04-24T16:56:00.726Z,94718.75
2023-04-24T16:58:46.025Z,94718.22
2023-04-24T17:01:31.195Z,94716.50
2023-04-24T17:04:16.559Z,94712.97
2023-04-24T17:07:02.088Z,94713.78
2023-04-24T17:09:47.549Z,94706.06
2023-04-24T17:12:32.888Z,94716.66
2023-04-24T17:15:18.009Z,94704.19
2023-04-24T17:18:03.520Z,94709.50
2023-04-24T17:20:48.858Z,94703.88
2023-04-24T17:23:34.190Z,94703.88
2023-04-24T17:26:19.459Z,94703.34
2023-04-24T17:29:04.752Z,94699.06
2023-04-24T17:31:49.860Z,94708.09
2023-04-24T17:34:35.225Z,94704.88
2023-04-24T17:37:23.202Z,94701.66
2023-04-24T17:40:09.063Z,94710.72
2023-04-24T17:42:54.700Z,94708.31
2023-04-24T17:45:39.679Z,94713.63
2023-04-24T17:48:25.287Z,94706.16
2023-04-24T17:51:10.609Z,94706.41
2023-04-24T17:53:55.556Z,94712.22
2023-04-24T17:56:41.197Z,94706.38
2023-04-24T17:59:26.751Z,94705.00
2023-04-24T18:02:12.184Z,94715.84
2023-04-24T18:04:57.764Z,94708.84
2023-04-24T18:07:43.100Z,94712.31
2023-04-24T18:10:31.616Z,94714.97
2023-04-24T18:13:16.909Z,94724.25
2023-04-24T18:16:02.237Z,94713.63
2023-04-24T18:18:47.501Z,94723.19
2023-04-24T18:21:33.137Z,94711.47
2023-04-24T18:24:19.041Z,94710.94
2023-04-24T18:27:04.254Z,94713.03
2023-04-24T18:29:49.604Z,94713.03
2023-04-24T18:32:35.995Z,94716.16
2023-04-24T18:35:22.089Z,94714.81
2023-04-24T18:38:07.491Z,94714.81
2023-04-24T18:40:52.461Z,94717.72
2023-04-24T18:43:37.820Z,94725.97
2023-04-24T18:46:23.059Z,94725.66
2023-04-24T18:49:08.450Z,94714.22
2023-04-24T18:51:54.769Z,94713.41
2023-04-24T18:54:41.121Z,94715.53
2023-04-24T18:57:26.815Z,94711.25
2023-04-24T19:00:12.422Z,94709.66
2023-04-24T19:02:57.652Z,94713.28
2023-04-24T19:05:42.775Z,94709.03
2023-04-24T19:08:27.753Z,94713.28
2023-04-24T19:11:13.337Z,94704.28
2023-04-24T19:14:04.145Z,94706.63
2023-04-24T19:16:50.097Z,94700.47
2023-04-24T19:19:36.189Z,94701.72
2023-04-24T19:22:21.638Z,94708.38
2023-04-24T19:25:07.438Z,94704.44
2023-04-24T19:27:52.642Z,94703.63
2023-04-24T19:30:38.528Z,94683.19
2023-04-24T19:33:23.641Z,94690.34
2023-04-24T19:36:09.270Z,94691.94
2023-04-24T19:38:55.169Z,94693.00
2023-04-24T19:41:40.263Z,94693.00
2023-04-24T19:44:25.697Z,94683.41
2023-04-24T19:47:10.875Z,94687.38
2023-04-24T19:49:56.687Z,94689.16
2023-04-24T19:52:41.840Z,94680.16
2023-04-24T19:55:26.977Z,94684.16
2023-04-24T19:58:12.098Z,94689.22
2023-04-24T20:00:58.216Z,94683.91
2023-04-24T20:03:43.703Z,94690.03
2023-04-24T20:06:29.094Z,94678.59
2023-04-24T20:09:14.644Z,94683.91
2023-04-24T20:12:00.164Z,94678.59
2023-04-24T20:14:45.088Z,94674.59
2023-04-24T20:17:30.873Z,94671.13
2023-04-24T20:20:15.914Z,94665.00
2023-04-24T20:23:01.281Z,94668.47
2023-04-24T20:25:46.567Z,94665.25
2023-04-24T20:28:31.985Z,94670.56
2023-04-24T20:31:17.706Z,94678.53
2023-04-24T20:34:03.526Z,94675.31
2023-04-24T20:36:49.756Z,94671.09
2023-04-24T20:39:34.971Z,94676.38
2023-04-24T20:42:20.609Z,94671.09
2023-04-24T20:45:06.641Z,94671.09
2023-04-24T20:47:52.046Z,94669.50
2023-04-24T20:50:41.891Z,94667.63
2023-04-24T20:53:27.103Z,94668.69
2023-04-24T20:56:12.445Z,94668.69
2023-04-24T20:58:57.838Z,94668.13
2023-04-24T21:01:44.858Z,94665.22
2023-04-24T21:04:32.254Z,94668.13
2023-04-24T21:07:17.835Z,94662.22
2023-04-24T21:10:03.013Z,94658.75
2023-04-24T21:12:48.492Z,94662.22
2023-04-24T21:15:33.756Z,94656.09
2023-04-24T21:18:19.034Z,94655.56
2023-04-24T21:21:04.516Z,94656.09
2023-04-24T21:23:49.919Z,94655.31
2023-04-24T21:26:35.663Z,94653.44
2023-04-24T21:29:21.206Z,94647.59
2023-04-24T21:32:06.437Z,94653.69
2023-04-24T21:34:51.663Z,94652.09
2023-04-24T21:37:39.207Z,94648.63
2023-04-24T21:40:24.905Z,94657.09
2023-04-24T21:43:10.146Z,94652.84
2023-04-24T21:45:56.719Z,94653.88
2023-04-24T21:48:42.268Z,94651.47
2023-04-24T21:51:28.442Z,94643.28
2023-04-24T21:54:14.199Z,94646.16
2023-04-24T21:56:59.629Z,94641.69
2023-04-24T21:59:45.769Z,94636.63
2023-04-24T22:03:27.468Z,94636.88
2023-04-24T22:06:12.649Z,94629.13
2023-04-24T22:08:57.808Z,94631.25
2023-04-24T22:11:43.014Z,94624.81
2023-04-24T22:14:28.372Z,94617.13
2023-04-24T22:17:15.373Z,94630.94
2023-04-24T22:20:01.559Z,94627.22
2023-04-24T22:22:47.398Z,94624.00
2023-04-24T22:25:32.766Z,94617.13
2023-04-24T22:28:17.877Z,94623.22
2023-04-24T22:31:03.548Z,94614.72
2023-04-24T22:33:49.516Z,94612.31
2023-04-24T22:36:34.884Z,94614.41
2023-04-24T22:39:20.150Z,94612.78
2023-04-24T22:42:05.656Z,94616.50
2023-04-24T22:44:51.463Z,94615.69
2023-04-24T22:47:36.832Z,94609.59
2023-04-24T22:50:22.675Z,94610.06
2023-04-24T22:53:08.039Z,94615.38
2023-04-24T22:55:53.372Z,94610.88
2023-04-24T22:58:38.670Z,94610.06
2023-04-24T23:01:24.726Z,94604.75
2023-04-24T23:04:09.894Z,94609.28
2023-04-24T23:06:55.255Z,94605.81
2023-04-24T23:09:40.699Z,94597.88
2023-04-24T23:12:25.929Z,94602.38
2023-04-24T23:15:14.642Z,94603.16
2023-04-24T23:17:59.669Z,94599.72
2023-04-24T23:20:46.084Z,94608.47
2023-04-24T23:23:31.481Z,94594.66
2023-04-24T23:26:16.783Z,94599.97
2023-04-24T23:29:01.969Z,94599.19
2023-04-24T23:31:47.303Z,94593.88
2023-04-24T23:34:34.006Z,94602.63
2023-04-24T23:37:19.162Z,94601.56
2023-04-24T23:40:11.677Z,94590.97
2023-04-24T23:43:06.200Z,94590.16
2023-04-24T23:45:52.191Z,94590.16
2023-04-24T23:48:37.504Z,94585.91
2023-04-24T23:51:23.062Z,94584.84
2023-04-24T23:54:08.050Z,94577.94
2023-04-24T23:56:53.290Z,94574.25
2023-04-24T23:59:38.664Z,94573.44
